Hutchinson, Minnesota
Current Conditions -  °F | °C
As of 8:33 AM on Friday 28 Nov 2014 (Local Time) from KHCD Reporting Station
Overcast Overcast  
Wind Chill: -1°   Ceiling: 1600
Heat Index: 12°   Visibility: 10mi
Dew Point:   Wind: 9mph
Humidity: 81%   Direction: 90°E
Pressure: 29.94"   Gusts: NA
Location:  44.89°N, 94.37°W
Report Text: KHCD 281433Z AUTO 09008KT 10SM OVC016 M11/M14 A2994 RMK AO2 T11121139
Loading
Personal Weather Stations






























Interactive Weather Map New forecast layout! Learn more

10-Day Weather Forecast

Advertisements
Track Severe Weather on mobile